Time;durP1;ratioP1;P1;durP2;ratioP2;P2;SDS_P1;SDS_P2;PMS_P1;PMS_P2;Temp;Humidity;BMP_temperature;BMP_pressure;BME280_temperature;BME280_humidity;BME280_pressure;Samples;Min_cycle;Max_cycle;Signal;HPM_P1;HPM_P2
2024/01/06 00:00:10;;;;;;;;;;;22.70;38.40;;;;;;5075503;28;19932;-55
2024/01/06 00:02:37;;;;;;;;;;;22.70;38.40;;;;;;5075308;28;20365;-53
2024/01/06 00:05:04;;;;;;;;;;;22.70;38.40;;;;;;5075712;28;19978;-55
2024/01/06 00:07:31;;;;;;;;;;;22.70;38.40;;;;;;5075364;28;19976;-55
2024/01/06 00:09:58;;;;;;;;;;;22.70;38.40;;;;;;5075010;28;19926;-51
2024/01/06 00:12:25;;;;;;;;;;;22.70;38.40;;;;;;5075655;28;19928;-55
2024/01/06 00:14:52;;;;;;;;;;;22.60;38.40;;;;;;5075217;28;20007;-51
2024/01/06 00:17:19;;;;;;;;;;;22.60;38.40;;;;;;5074982;28;20293;-52
2024/01/06 00:19:50;;;;;;;;;;;22.70;38.40;;;;;;5074963;28;20392;-51
2024/01/06 00:22:18;;;;;;;;;;;22.70;38.40;;;;;;5075261;28;19960;-53
2024/01/06 00:24:45;;;;;;;;;;;22.70;38.40;;;;;;5074832;28;19925;-51
2024/01/06 00:27:13;;;;;;;;;;;22.60;38.30;;;;;;5074997;28;19931;-53
2024/01/06 00:29:40;;;;;;;;;;;22.60;38.30;;;;;;5074793;28;20377;-50
2024/01/06 00:32:07;;;;;;;;;;;22.60;38.30;;;;;;5074915;28;19960;-55
2024/01/06 00:34:34;;;;;;;;;;;22.60;38.30;;;;;;5073931;28;20352;-53
2024/01/06 00:37:02;;;;;;;;;;;22.60;38.40;;;;;;5074915;28;20015;-55
2024/01/06 00:39:29;;;;;;;;;;;22.60;38.30;;;;;;5074664;28;19925;-54
2024/01/06 00:41:56;;;;;;;;;;;22.70;38.40;;;;;;5074627;28;19931;-52
2024/01/06 00:44:22;;;;;;;;;;;22.60;38.40;;;;;;5074698;28;20457;-52
2024/01/06 00:46:49;;;;;;;;;;;22.70;38.40;;;;;;5074783;28;19925;-54
2024/01/06 00:49:16;;;;;;;;;;;22.70;38.50;;;;;;5074601;28;19928;-56
2024/01/06 00:51:43;;;;;;;;;;;22.70;38.50;;;;;;5074200;28;19932;-52
2024/01/06 00:54:10;;;;;;;;;;;22.70;38.40;;;;;;5074458;28;19928;-55
2024/01/06 00:56:37;;;;;;;;;;;22.70;38.40;;;;;;5074378;28;19925;-50
2024/01/06 00:59:04;;;;;;;;;;;22.70;38.40;;;;;;5074222;28;20378;-52
2024/01/06 01:01:31;;;;;;;;;;;22.60;38.30;;;;;;5074316;28;19928;-55
2024/01/06 01:03:58;;;;;;;;;;;22.70;38.40;;;;;;5074018;28;19924;-51
2024/01/06 01:06:25;;;;;;;;;;;22.70;38.40;;;;;;5074462;28;19931;-55
2024/01/06 01:08:53;;;;;;;;;;;22.70;38.40;;;;;;5074320;28;19925;-55
2024/01/06 01:11:20;;;;;;;;;;;22.70;38.40;;;;;;5074107;28;19935;-52
2024/01/06 01:13:47;;;;;;;;;;;22.60;38.30;;;;;;5074241;28;19924;-55
2024/01/06 01:16:14;;;;;;;;;;;22.70;38.40;;;;;;5073902;28;20019;-54
2024/01/06 01:18:40;;;;;;;;;;;22.60;38.30;;;;;;5073686;28;19976;-55
2024/01/06 01:21:07;;;;;;;;;;;22.60;38.30;;;;;;5073888;28;20015;-54
2024/01/06 01:23:34;;;;;;;;;;;22.60;38.30;;;;;;5073728;28;20363;-54
2024/01/06 01:26:01;;;;;;;;;;;22.60;38.30;;;;;;5073892;28;20400;-52
2024/01/06 01:28:28;;;;;;;;;;;22.60;38.30;;;;;;5073794;28;19940;-50
2024/01/06 01:30:55;;;;;;;;;;;22.60;38.30;;;;;;5073654;28;19976;-54
2024/01/06 01:33:22;;;;;;;;;;;22.60;38.30;;;;;;5073391;28;20736;-55
2024/01/06 01:35:49;;;;;;;;;;;22.60;38.30;;;;;;5074131;28;19986;-52
2024/01/06 01:38:16;;;;;;;;;;;22.60;38.30;;;;;;5073702;28;20019;-54
2024/01/06 01:40:43;;;;;;;;;;;22.60;38.30;;;;;;5073952;28;20266;-52
2024/01/06 01:43:17;;;;;;;;;;;22.60;38.30;;;;;;5073364;28;19970;-55
2024/01/06 01:45:48;;;;;;;;;;;22.60;38.30;;;;;;5073632;28;20300;-56
2024/01/06 01:48:14;;;;;;;;;;;22.60;38.30;;;;;;5073790;28;19925;-56
2024/01/06 01:50:42;;;;;;;;;;;22.60;38.40;;;;;;5073512;28;19932;-55
2024/01/06 01:53:09;;;;;;;;;;;22.60;38.30;;;;;;5073290;28;19931;-55
2024/01/06 01:55:36;;;;;;;;;;;22.60;38.40;;;;;;5073360;28;19970;-56
2024/01/06 01:58:03;;;;;;;;;;;22.60;38.40;;;;;;5073287;28;19967;-55
2024/01/06 02:00:30;;;;;;;;;;;22.60;38.40;;;;;;5073804;28;19924;-55
2024/01/06 02:02:58;;;;;;;;;;;22.60;38.40;;;;;;5073521;28;19972;-53
2024/01/06 02:05:25;;;;;;;;;;;22.60;38.40;;;;;;5055443;28;19924;-55
2024/01/06 02:07:53;;;;;;;;;;;22.60;38.30;;;;;;5073305;28;20373;-55
2024/01/06 02:10:20;;;;;;;;;;;22.60;38.30;;;;;;5073429;28;19956;-50
2024/01/06 02:12:47;;;;;;;;;;;22.60;38.30;;;;;;5073247;28;19924;-52
2024/01/06 02:15:14;;;;;;;;;;;22.60;38.30;;;;;;5072915;28;19982;-53
2024/01/06 02:17:41;;;;;;;;;;;22.60;38.30;;;;;;5073020;28;19971;-56
2024/01/06 02:20:08;;;;;;;;;;;22.60;38.30;;;;;;5073126;28;19932;-51
2024/01/06 02:22:36;;;;;;;;;;;22.60;38.30;;;;;;5072939;28;19983;-52
2024/01/06 02:25:07;;;;;;;;;;;22.60;38.30;;;;;;5072949;28;19925;-56
2024/01/06 02:27:34;;;;;;;;;;;22.60;38.30;;;;;;5055801;28;20003;-54
2024/01/06 02:30:01;;;;;;;;;;;22.60;38.40;;;;;;5073236;28;19925;-54
2024/01/06 02:32:28;;;;;;;;;;;22.60;38.40;;;;;;5073132;28;19931;-54
2024/01/06 02:34:55;;;;;;;;;;;22.60;38.40;;;;;;5073132;28;20285;-52
2024/01/06 02:37:22;;;;;;;;;;;22.60;38.40;;;;;;5072955;28;20305;-52
2024/01/06 02:39:49;;;;;;;;;;;22.60;38.30;;;;;;5072944;28;19931;-54
2024/01/06 02:42:16;;;;;;;;;;;22.60;38.30;;;;;;5072840;28;19931;-55
2024/01/06 02:44:43;;;;;;;;;;;22.60;38.30;;;;;;5073358;28;19948;-55
2024/01/06 02:47:09;;;;;;;;;;;22.60;38.30;;;;;;5072841;28;19931;-55
2024/01/06 02:49:36;;;;;;;;;;;22.60;38.30;;;;;;5073081;28;19925;-55
2024/01/06 02:52:04;;;;;;;;;;;22.60;38.40;;;;;;5072932;28;19928;-53
2024/01/06 02:54:31;;;;;;;;;;;22.60;38.30;;;;;;5072864;28;20271;-55
2024/01/06 02:56:58;;;;;;;;;;;22.60;38.30;;;;;;5073483;28;19924;-53
2024/01/06 02:59:25;;;;;;;;;;;22.60;38.40;;;;;;5076712;28;19928;-55
2024/01/06 03:01:52;;;;;;;;;;;22.60;38.40;;;;;;5076550;28;19986;-54
2024/01/06 03:04:18;;;;;;;;;;;22.60;38.40;;;;;;5076712;28;19925;-54
2024/01/06 03:06:51;;;;;;;;;;;22.60;38.40;;;;;;5076509;28;19924;-52
2024/01/06 03:09:19;;;;;;;;;;;22.60;38.40;;;;;;5076206;28;20424;-55
2024/01/06 03:11:46;;;;;;;;;;;22.60;38.40;;;;;;5076404;28;19930;-54
2024/01/06 03:14:13;;;;;;;;;;;22.60;38.40;;;;;;5076450;28;19931;-55
2024/01/06 03:16:40;;;;;;;;;;;22.60;38.30;;;;;;5076163;28;19924;-53
2024/01/06 03:19:07;;;;;;;;;;;22.60;38.30;;;;;;5075961;28;19970;-56
2024/01/06 03:21:34;;;;;;;;;;;22.60;38.30;;;;;;5076489;28;20007;-56
2024/01/06 03:24:01;;;;;;;;;;;22.60;38.30;;;;;;5076334;28;19925;-56
2024/01/06 03:26:32;;;;;;;;;;;22.60;38.40;;;;;;5075463;28;21267;-54
2024/01/06 03:28:59;;;;;;;;;;;22.60;38.30;;;;;;5075999;28;19925;-51
2024/01/06 03:31:27;;;;;;;;;;;22.60;38.40;;;;;;5076018;28;20384;-54
2024/01/06 03:33:55;;;;;;;;;;;22.60;38.40;;;;;;5076120;28;19924;-55
2024/01/06 03:36:23;;;;;;;;;;;22.50;38.30;;;;;;5075980;28;20373;-54
2024/01/06 03:38:50;;;;;;;;;;;22.50;38.30;;;;;;5075757;28;20389;-54
2024/01/06 03:41:16;;;;;;;;;;;22.50;38.30;;;;;;5075622;28;20285;-55
2024/01/06 03:43:43;;;;;;;;;;;22.50;38.30;;;;;;5075958;28;19994;-56
2024/01/06 03:46:10;;;;;;;;;;;22.50;38.30;;;;;;5075743;28;19924;-56
2024/01/06 03:48:37;;;;;;;;;;;22.50;38.30;;;;;;5058011;28;19924;-56
2024/01/06 03:51:04;;;;;;;;;;;22.50;38.30;;;;;;5076003;28;20357;-55
2024/01/06 03:53:31;;;;;;;;;;;22.50;38.30;;;;;;5075707;28;20391;-55
2024/01/06 03:55:58;;;;;;;;;;;22.50;38.30;;;;;;5075696;28;20381;-56
2024/01/06 03:58:25;;;;;;;;;;;22.50;38.30;;;;;;5075581;28;19924;-57
2024/01/06 04:00:52;;;;;;;;;;;22.50;38.30;;;;;;5075722;28;20019;-57
2024/01/06 04:03:19;;;;;;;;;;;22.50;38.40;;;;;;5075270;28;19929;-56
2024/01/06 04:05:46;;;;;;;;;;;22.50;38.30;;;;;;5075298;28;19963;-57
2024/01/06 04:08:13;;;;;;;;;;;22.50;38.30;;;;;;5075167;28;20023;-54
2024/01/06 04:10:41;;;;;;;;;;;22.50;38.40;;;;;;5075229;28;19978;-55
2024/01/06 04:13:08;;;;;;;;;;;22.50;38.40;;;;;;5075043;28;19976;-56
2024/01/06 04:15:35;;;;;;;;;;;22.50;38.40;;;;;;5075582;28;19935;-56
2024/01/06 04:18:03;;;;;;;;;;;22.50;38.40;;;;;;5057433;28;19951;-54
2024/01/06 04:20:30;;;;;;;;;;;22.50;38.60;;;;;;5075320;28;19928;-56
2024/01/06 04:22:58;;;;;;;;;;;22.60;38.40;;;;;;5074934;28;19931;-52
2024/01/06 04:25:25;;;;;;;;;;;22.50;38.30;;;;;;5075047;28;19925;-53
2024/01/06 04:27:52;;;;;;;;;;;22.60;38.40;;;;;;5074972;28;20349;-54
2024/01/06 04:30:20;;;;;;;;;;;22.50;38.30;;;;;;5074777;28;20011;-54
2024/01/06 04:32:50;;;;;;;;;;;22.50;38.30;;;;;;5074861;28;20015;-56
2024/01/06 04:35:17;;;;;;;;;;;22.60;38.30;;;;;;5074771;28;20286;-54
2024/01/06 04:37:44;;;;;;;;;;;22.50;38.30;;;;;;5074750;28;19931;-56
2024/01/06 04:40:11;;;;;;;;;;;22.50;38.30;;;;;;5074802;28;19924;-56
2024/01/06 04:42:38;;;;;;;;;;;22.50;38.30;;;;;;5074660;28;19924;-55
2024/01/06 04:45:06;;;;;;;;;;;22.60;38.30;;;;;;5074902;28;19934;-56
2024/01/06 04:47:32;;;;;;;;;;;22.60;38.90;;;;;;5074534;28;19936;-51
2024/01/06 04:49:59;;;;;;;;;;;22.60;38.30;;;;;;5074851;28;19925;-50
2024/01/06 04:52:26;;;;;;;;;;;22.60;38.30;;;;;;5074687;28;19928;-53
2024/01/06 04:54:53;;;;;;;;;;;22.60;38.20;;;;;;5074400;28;19925;-54
2024/01/06 04:57:20;;;;;;;;;;;22.60;38.20;;;;;;5074108;28;19928;-52
2024/01/06 04:59:47;;;;;;;;;;;22.60;38.20;;;;;;5074515;28;20263;-54
2024/01/06 05:02:15;;;;;;;;;;;22.60;38.20;;;;;;5074433;28;20380;-52
2024/01/06 05:04:42;;;;;;;;;;;22.60;38.30;;;;;;5073921;28;19925;-54
2024/01/06 05:07:09;;;;;;;;;;;22.60;38.30;;;;;;5074238;28;20019;-53
2024/01/06 05:09:36;;;;;;;;;;;22.60;38.30;;;;;;5074297;28;20348;-52
2024/01/06 05:12:03;;;;;;;;;;;22.60;38.30;;;;;;5074211;28;19928;-54
2024/01/06 05:14:29;;;;;;;;;;;22.60;38.30;;;;;;5074351;28;19929;-53
2024/01/06 05:16:56;;;;;;;;;;;22.60;38.30;;;;;;5074287;28;19948;-55
2024/01/06 05:19:23;;;;;;;;;;;22.60;38.30;;;;;;5073913;28;19925;-52
2024/01/06 05:21:50;;;;;;;;;;;22.60;38.30;;;;;;5073665;28;20382;-54
2024/01/06 05:24:19;;;;;;;;;;;22.60;38.30;;;;;;5056125;28;19925;-53
2024/01/06 05:26:46;;;;;;;;;;;22.60;38.30;;;;;;5056477;28;19925;-53
2024/01/06 05:29:13;;;;;;;;;;;22.60;38.30;;;;;;5073745;28;19933;-54
2024/01/06 05:31:40;;;;;;;;;;;22.70;38.20;;;;;;5073762;28;19978;-55
2024/01/06 05:34:07;;;;;;;;;;;22.70;38.20;;;;;;5073978;28;19946;-54
2024/01/06 05:36:34;;;;;;;;;;;22.70;38.30;;;;;;5074117;28;20015;-54
2024/01/06 05:39:01;;;;;;;;;;;22.70;38.30;;;;;;5073500;28;20320;-53
2024/01/06 05:41:28;;;;;;;;;;;22.70;38.20;;;;;;5073701;28;19978;-54
2024/01/06 05:43:56;;;;;;;;;;;22.70;38.70;;;;;;5073281;28;19928;-53
2024/01/06 05:46:23;;;;;;;;;;;22.70;38.20;;;;;;5073682;28;20408;-53
2024/01/06 05:48:50;;;;;;;;;;;22.70;38.20;;;;;;5055953;28;19925;-53
2024/01/06 05:51:18;;;;;;;;;;;22.70;38.20;;;;;;5073419;28;19932;-54
2024/01/06 05:53:45;;;;;;;;;;;22.80;38.30;;;;;;5073453;28;19925;-55
2024/01/06 05:56:12;;;;;;;;;;;22.70;38.20;;;;;;5073570;28;19924;-53
2024/01/06 05:58:39;;;;;;;;;;;22.80;38.20;;;;;;5073530;28;19925;-54
2024/01/06 06:01:07;;;;;;;;;;;22.80;38.20;;;;;;5073177;28;19938;-54
2024/01/06 06:03:34;;;;;;;;;;;22.80;38.20;;;;;;5073346;28;19935;-55
2024/01/06 06:06:01;;;;;;;;;;;22.80;38.20;;;;;;5073421;28;19924;-55
2024/01/06 06:08:28;;;;;;;;;;;22.80;38.20;;;;;;5073472;28;19928;-54
2024/01/06 06:11:01;;;;;;;;;;;22.80;38.20;;;;;;5073442;28;19952;-54
2024/01/06 06:13:29;;;;;;;;;;;22.80;38.20;;;;;;5073447;28;20351;-55
2024/01/06 06:15:56;;;;;;;;;;;22.80;38.20;;;;;;5073504;28;19978;-55
2024/01/06 06:18:23;;;;;;;;;;;22.80;38.20;;;;;;5072907;28;20389;-54
2024/01/06 06:20:50;;;;;;;;;;;22.80;38.10;;;;;;5073630;28;19946;-56
2024/01/06 06:23:17;;;;;;;;;;;22.90;38.20;;;;;;5072846;28;19978;-53
2024/01/06 06:25:44;;;;;;;;;;;22.90;38.20;;;;;;5073279;28;19925;-58
2024/01/06 06:28:10;;;;;;;;;;;22.80;38.20;;;;;;5073249;28;19978;-55
2024/01/06 06:30:38;;;;;;;;;;;22.90;38.20;;;;;;5073167;28;19924;-57
2024/01/06 06:33:05;;;;;;;;;;;22.90;38.30;;;;;;5077023;28;19924;-53
2024/01/06 06:35:32;;;;;;;;;;;22.90;38.20;;;;;;5076948;28;19924;-54
2024/01/06 06:37:59;;;;;;;;;;;22.90;38.20;;;;;;5077155;28;19925;-55
2024/01/06 06:40:25;;;;;;;;;;;22.90;38.20;;;;;;5077465;28;19932;-55
2024/01/06 06:42:52;;;;;;;;;;;22.90;38.20;;;;;;5077031;28;20011;-58
2024/01/06 06:45:22;;;;;;;;;;;23.00;38.20;;;;;;5077065;28;19932;-60
2024/01/06 06:47:50;;;;;;;;;;;23.00;38.20;;;;;;5076888;28;19970;-61
2024/01/06 06:50:17;;;;;;;;;;;22.90;38.10;;;;;;5077147;28;20439;-57
2024/01/06 06:52:44;;;;;;;;;;;23.00;38.20;;;;;;5077017;28;19954;-58
2024/01/06 06:55:11;;;;;;;;;;;23.00;38.20;;;;;;5076943;28;19931;-55
2024/01/06 06:57:38;;;;;;;;;;;23.00;38.20;;;;;;5076593;28;19924;-60
2024/01/06 07:00:07;;;;;;;;;;;23.00;38.20;;;;;;5076713;28;20385;-56
2024/01/06 07:02:34;;;;;;;;;;;23.00;38.20;;;;;;5059508;28;19925;-61
2024/01/06 07:05:01;;;;;;;;;;;23.00;38.20;;;;;;5076422;28;19976;-61
2024/01/06 07:07:28;;;;;;;;;;;23.00;38.20;;;;;;5076420;28;19968;-56
2024/01/06 07:09:55;;;;;;;;;;;23.00;38.20;;;;;;5076769;28;19928;-59
2024/01/06 07:12:22;;;;;;;;;;;23.00;38.20;;;;;;5076326;28;20058;-61
2024/01/06 07:14:49;;;;;;;;;;;23.00;38.10;;;;;;5076712;28;19924;-59
2024/01/06 07:17:16;;;;;;;;;;;23.00;38.10;;;;;;5075870;28;19931;-60
2024/01/06 07:19:43;;;;;;;;;;;23.00;38.10;;;;;;5076645;28;19936;-58
2024/01/06 07:22:10;;;;;;;;;;;23.10;38.10;;;;;;5076668;28;19974;-58
2024/01/06 07:24:37;;;;;;;;;;;23.10;38.10;;;;;;5076385;28;19924;-58
2024/01/06 07:27:04;;;;;;;;;;;23.10;38.20;;;;;;5076484;28;19924;-62
2024/01/06 07:29:31;;;;;;;;;;;23.10;38.20;;;;;;5076043;28;19925;-57
2024/01/06 07:31:58;;;;;;;;;;;23.10;38.20;;;;;;5076069;28;19964;-60
2024/01/06 07:34:25;;;;;;;;;;;23.10;38.20;;;;;;5075797;28;19924;-60
2024/01/06 07:36:52;;;;;;;;;;;23.10;38.20;;;;;;5076188;28;19932;-55
2024/01/06 07:39:19;;;;;;;;;;;23.10;38.20;;;;;;5075689;28;19928;-50
2024/01/06 07:41:46;;;;;;;;;;;23.10;38.10;;;;;;5076135;28;19964;-52
2024/01/06 07:44:13;;;;;;;;;;;23.10;38.20;;;;;;5075250;28;19963;-49
2024/01/06 07:46:40;;;;;;;;;;;23.10;38.10;;;;;;5075908;28;19928;-51
2024/01/06 07:49:07;;;;;;;;;;;23.10;38.10;;;;;;5075791;28;20379;-49
2024/01/06 07:51:34;;;;;;;;;;;23.20;38.10;;;;;;5075879;28;19928;-54
2024/01/06 07:54:02;;;;;;;;;;;23.20;38.10;;;;;;5075836;28;20289;-52
2024/01/06 07:56:29;;;;;;;;;;;23.20;38.00;;;;;;5075639;28;19924;-55
2024/01/06 07:58:55;;;;;;;;;;;23.20;38.00;;;;;;5075733;28;20023;-52
2024/01/06 08:01:22;;;;;;;;;;;23.20;38.00;;;;;;5075674;28;19924;-52
2024/01/06 08:03:50;;;;;;;;;;;23.20;38.00;;;;;;5075398;28;19967;-53
2024/01/06 08:06:17;;;;;;;;;;;23.20;38.00;;;;;;5075528;28;19924;-53
2024/01/06 08:08:45;;;;;;;;;;;23.20;38.00;;;;;;5058044;28;19928;-49
2024/01/06 08:11:12;;;;;;;;;;;23.30;38.00;;;;;;5075109;28;19971;-53
2024/01/06 08:13:39;;;;;;;;;;;23.30;38.00;;;;;;5075543;28;19925;-52
2024/01/06 08:16:06;;;;;;;;;;;23.30;38.00;;;;;;5075485;28;19924;-51
2024/01/06 08:18:33;;;;;;;;;;;23.30;38.00;;;;;;5074740;28;20019;-50
2024/01/06 08:21:00;;;;;;;;;;;23.30;38.00;;;;;;5075291;28;19932;-56
2024/01/06 08:23:27;;;;;;;;;;;23.30;37.90;;;;;;5075154;28;19954;-50
2024/01/06 08:25:55;;;;;;;;;;;23.30;38.00;;;;;;5075238;28;19974;-51
2024/01/06 08:28:23;;;;;;;;;;;23.40;38.00;;;;;;5075346;28;19970;-51
2024/01/06 08:30:50;;;;;;;;;;;23.30;38.00;;;;;;5075017;28;19925;-50
2024/01/06 08:33:17;;;;;;;;;;;23.30;38.00;;;;;;5074852;28;20293;-50
2024/01/06 08:35:44;;;;;;;;;;;23.40;38.00;;;;;;5074944;28;20457;-50
2024/01/06 08:38:11;;;;;;;;;;;23.40;38.00;;;;;;5074997;28;19970;-54
2024/01/06 08:40:38;;;;;;;;;;;23.40;38.00;;;;;;5074996;28;19980;-56
2024/01/06 08:43:05;;;;;;;;;;;23.40;37.90;;;;;;5074847;28;19993;-56
2024/01/06 08:45:33;;;;;;;;;;;23.40;37.90;;;;;;5074852;28;19924;-55
2024/01/06 08:48:00;;;;;;;;;;;23.40;37.90;;;;;;5057209;28;20258;-55
2024/01/06 08:50:27;;;;;;;;;;;23.50;37.90;;;;;;5074624;28;20373;-57
2024/01/06 08:52:54;;;;;;;;;;;23.50;37.90;;;;;;5074774;28;19931;-55
2024/01/06 08:55:21;;;;;;;;;;;23.60;37.90;;;;;;5073240;28;20459;-55
2024/01/06 08:57:47;;;;;;;;;;;23.60;37.90;;;;;;5074428;28;19925;-55
2024/01/06 09:00:15;;;;;;;;;;;23.60;37.80;;;;;;5074303;28;20015;-54
2024/01/06 09:02:42;;;;;;;;;;;23.60;37.80;;;;;;5056682;28;19924;-54
2024/01/06 09:05:09;;;;;;;;;;;23.60;37.70;;;;;;5074535;28;19932;-55
2024/01/06 09:07:36;;;;;;;;;;;23.60;37.70;;;;;;5074028;28;19928;-51
2024/01/06 09:10:03;;;;;;;;;;;23.70;38.30;;;;;;5074664;28;19967;-54
2024/01/06 09:12:30;;;;;;;;;;;23.70;37.70;;;;;;5074197;28;19932;-57
2024/01/06 09:14:57;;;;;;;;;;;23.70;37.70;;;;;;5074412;28;20328;-54
2024/01/06 09:17:24;;;;;;;;;;;23.80;37.70;;;;;;5073924;28;19932;-55
2024/01/06 09:19:53;;;;;;;;;;;23.80;37.70;;;;;;5073896;28;19924;-55
2024/01/06 09:22:20;;;;;;;;;;;23.80;37.70;;;;;;5073837;28;19924;-54
2024/01/06 09:24:47;;;;;;;;;;;23.90;37.70;;;;;;5073889;28;19959;-52
2024/01/06 09:27:15;;;;;;;;;;;23.80;37.70;;;;;;5073985;28;20047;-53
2024/01/06 09:29:42;;;;;;;;;;;23.90;37.70;;;;;;5073507;28;19925;-49
2024/01/06 09:32:09;;;;;;;;;;;23.90;37.70;;;;;;5073476;28;19924;-52
2024/01/06 09:34:37;;;;;;;;;;;23.90;37.70;;;;;;5073699;28;19931;-50
2024/01/06 09:37:06;;;;;;;;;;;24.00;37.80;;;;;;5073417;28;19929;-51
2024/01/06 09:39:33;;;;;;;;;;;24.00;37.80;;;;;;5072931;28;20428;-51
2024/01/06 09:42:00;;;;;;;;;;;24.00;37.70;;;;;;5073639;28;19946;-51
2024/01/06 09:44:27;;;;;;;;;;;24.00;37.70;;;;;;5073442;28;20051;-54
2024/01/06 09:46:56;;;;;;;;;;;24.00;37.70;;;;;;5073661;28;19925;-53
2024/01/06 09:49:23;;;;;;;;;;;24.00;37.60;;;;;;5073099;28;19946;-56
2024/01/06 09:51:52;;;;;;;;;;;24.00;37.60;;;;;;5055589;28;19956;-56
2024/01/06 09:54:24;;;;;;;;;;;24.10;37.70;;;;;;5073105;28;19954;-57
2024/01/06 09:56:51;;;;;;;;;;;24.00;37.60;;;;;;5073019;28;20385;-56
2024/01/06 09:59:19;;;;;;;;;;;24.10;38.20;;;;;;5073308;28;20328;-57
2024/01/06 10:01:47;;;;;;;;;;;24.10;37.60;;;;;;5073504;28;19962;-57
2024/01/06 10:04:14;;;;;;;;;;;24.10;37.60;;;;;;5073435;28;19924;-57
2024/01/06 10:06:47;;;;;;;;;;;24.10;37.60;;;;;;5073289;28;19959;-57
2024/01/06 10:09:14;;;;;;;;;;;24.10;37.60;;;;;;5072775;28;19925;-56
2024/01/06 10:11:41;;;;;;;;;;;24.10;37.60;;;;;;5072816;28;19971;-54
2024/01/06 10:14:08;;;;;;;;;;;24.10;37.60;;;;;;5072904;28;20407;-56
2024/01/06 10:16:36;;;;;;;;;;;24.10;37.60;;;;;;5073384;28;19925;-57
2024/01/06 10:19:03;;;;;;;;;;;24.10;37.60;;;;;;5072898;28;20019;-57
2024/01/06 10:21:31;;;;;;;;;;;24.10;37.50;;;;;;5055191;28;20018;-56
2024/01/06 10:23:59;;;;;;;;;;;24.20;37.60;;;;;;5073206;28;19986;-54
2024/01/06 10:26:29;;;;;;;;;;;24.10;37.50;;;;;;5072645;28;19925;-56
2024/01/06 10:28:56;;;;;;;;;;;24.20;37.60;;;;;;5072852;28;19928;-57
2024/01/06 10:31:24;;;;;;;;;;;24.20;37.50;;;;;;5072995;28;19931;-54
2024/01/06 10:33:51;;;;;;;;;;;24.20;37.50;;;;;;5072499;28;19929;-55
2024/01/06 10:36:19;;;;;;;;;;;24.20;37.50;;;;;;5073385;28;19924;-57
2024/01/06 10:38:46;;;;;;;;;;;24.20;37.50;;;;;;5072718;28;19929;-58
2024/01/06 10:41:15;;;;;;;;;;;24.30;37.50;;;;;;5073841;28;19931;-57
2024/01/06 10:43:43;;;;;;;;;;;24.20;37.40;;;;;;5087806;28;19931;-57
2024/01/06 10:46:10;;;;;;;;;;;24.20;37.40;;;;;;5072675;28;19931;-57
2024/01/06 10:48:42;;;;;;;;;;;24.20;37.40;;;;;;5072657;28;19924;-56
2024/01/06 10:51:11;;;;;;;;;;;24.20;37.50;;;;;;5072614;28;19978;-57
2024/01/06 10:53:40;;;;;;;;;;;24.20;37.40;;;;;;5072508;28;20331;-57
2024/01/06 10:56:13;;;;;;;;;;;24.20;37.50;;;;;;5072688;28;19928;-55
2024/01/06 10:58:45;;;;;;;;;;;24.30;37.50;;;;;;5072455;28;19932;-57
2024/01/06 11:01:12;;;;;;;;;;;24.30;37.50;;;;;;5055308;28;19970;-57
2024/01/06 11:03:45;;;;;;;;;;;24.20;37.50;;;;;;5072719;28;19971;-55
2024/01/06 11:06:12;;;;;;;;;;;24.30;38.10;;;;;;5072901;28;19929;-57
2024/01/06 11:08:59;;;;;;;;;;;24.20;37.50;;;;;;5072861;28;20015;-56
2024/01/06 11:11:26;;;;;;;;;;;24.30;37.50;;;;;;5072787;28;20031;-57
2024/01/06 11:14:13;;;;;;;;;;;24.30;37.50;;;;;;5072629;28;20285;-56
2024/01/06 11:16:40;;;;;;;;;;;24.30;37.50;;;;;;5072159;28;20254;-58
2024/01/06 11:19:27;;;;;;;;;;;24.30;37.40;;;;;;5074319;28;19960;-56
2024/01/06 11:21:55;;;;;;;;;;;24.30;37.40;;;;;;5076472;28;19971;-56
2024/01/06 11:24:26;;;;;;;;;;;24.30;37.30;;;;;;5075839;28;19924;-57
2024/01/06 11:26:56;;;;;;;;;;;24.40;37.30;;;;;;5076017;28;19924;-56
2024/01/06 11:29:23;;;;;;;;;;;24.40;37.30;;;;;;5076191;28;19933;-57
2024/01/06 11:32:10;;;;;;;;;;;24.50;37.30;;;;;;5076354;28;19978;-56
2024/01/06 11:34:37;;;;;;;;;;;24.50;37.20;;;;;;5075861;28;19936;-57
2024/01/06 11:37:09;;;;;;;;;;;24.50;37.10;;;;;;5076023;28;19978;-57
2024/01/06 11:39:41;;;;;;;;;;;24.50;37.10;;;;;;5075648;28;20351;-57
2024/01/06 11:42:11;;;;;;;;;;;24.50;37.10;;;;;;5076318;28;19970;-57
2024/01/06 11:44:39;;;;;;;;;;;24.50;37.10;;;;;;5076136;28;19928;-58
2024/01/06 11:47:06;;;;;;;;;;;24.60;37.10;;;;;;5058312;28;19990;-54
2024/01/06 11:49:33;;;;;;;;;;;24.50;37.10;;;;;;5075994;28;19931;-57
2024/01/06 11:52:00;;;;;;;;;;;24.50;37.10;;;;;;5075730;28;20275;-57
2024/01/06 11:54:28;;;;;;;;;;;24.50;37.10;;;;;;5075624;28;19924;-56
2024/01/06 11:56:57;;;;;;;;;;;24.50;37.10;;;;;;5057951;28;19925;-58
2024/01/06 11:59:24;;;;;;;;;;;24.50;37.10;;;;;;5075495;28;19924;-57
2024/01/06 12:01:51;;;;;;;;;;;24.50;37.10;;;;;;5058159;28;19925;-57
2024/01/06 12:04:18;;;;;;;;;;;24.50;37.10;;;;;;5057839;28;19931;-57
2024/01/06 12:06:46;;;;;;;;;;;24.60;37.20;;;;;;5075806;28;19967;-57
2024/01/06 12:09:16;;;;;;;;;;;24.60;37.20;;;;;;5075207;28;20020;-57
2024/01/06 12:11:46;;;;;;;;;;;24.60;37.10;;;;;;5075667;28;19924;-57
2024/01/06 12:14:13;;;;;;;;;;;24.60;37.20;;;;;;5075478;28;20285;-55
2024/01/06 12:16:41;;;;;;;;;;;24.60;37.10;;;;;;5075556;28;19948;-56
2024/01/06 12:19:08;;;;;;;;;;;24.60;37.20;;;;;;5074906;28;19928;-57
2024/01/06 12:21:37;;;;;;;;;;;24.60;37.10;;;;;;5075407;28;19928;-56
2024/01/06 12:24:20;;;;;;;;;;;24.60;37.10;;;;;;5075223;28;19970;-57
2024/01/06 12:26:47;;;;;;;;;;;24.60;37.10;;;;;;5075340;28;19960;-56
2024/01/06 12:29:14;;;;;;;;;;;24.60;37.10;;;;;;5074503;28;20324;-56
2024/01/06 12:31:44;;;;;;;;;;;24.60;37.10;;;;;;5074991;28;19932;-54
2024/01/06 12:34:11;;;;;;;;;;;24.60;37.20;;;;;;5074714;28;19976;-55
2024/01/06 12:36:39;;;;;;;;;;;24.60;37.20;;;;;;5074807;28;20385;-55
2024/01/06 12:39:10;;;;;;;;;;;24.60;37.20;;;;;;5074577;28;20340;-57
2024/01/06 12:41:37;;;;;;;;;;;24.60;37.20;;;;;;5074912;28;20365;-57
2024/01/06 12:44:04;;;;;;;;;;;24.50;37.10;;;;;;5074649;28;19924;-59
2024/01/06 12:46:31;;;;;;;;;;;24.50;37.10;;;;;;5074683;28;20369;-58
2024/01/06 12:48:58;;;;;;;;;;;24.60;37.20;;;;;;5074571;28;19928;-57
2024/01/06 12:51:25;;;;;;;;;;;24.50;37.10;;;;;;5074712;28;19962;-56
2024/01/06 12:53:52;;;;;;;;;;;24.50;37.10;;;;;;5074427;28;19924;-57
2024/01/06 12:56:19;;;;;;;;;;;24.50;37.20;;;;;;5074384;28;20381;-57
2024/01/06 12:58:46;;;;;;;;;;;24.50;37.20;;;;;;5074083;28;19962;-57
2024/01/06 13:01:13;;;;;;;;;;;24.50;37.20;;;;;;5074405;28;20410;-58
2024/01/06 13:03:40;;;;;;;;;;;24.50;37.30;;;;;;5056703;28;19932;-57
2024/01/06 13:06:09;;;;;;;;;;;24.50;37.30;;;;;;5056484;28;19925;-59
2024/01/06 13:08:36;;;;;;;;;;;24.50;37.30;;;;;;5074162;28;19931;-56
2024/01/06 13:11:03;;;;;;;;;;;24.50;37.30;;;;;;5074191;28;19924;-57
2024/01/06 13:13:31;;;;;;;;;;;24.50;37.30;;;;;;5073743;28;20018;-57
2024/01/06 13:15:58;;;;;;;;;;;24.50;37.30;;;;;;5074102;28;19929;-57
2024/01/06 13:18:25;;;;;;;;;;;24.50;37.30;;;;;;5056197;28;19925;-58
2024/01/06 13:20:53;;;;;;;;;;;24.50;37.30;;;;;;5074188;28;20350;-57
2024/01/06 13:23:20;;;;;;;;;;;24.50;37.30;;;;;;5074109;28;19935;-57
2024/01/06 13:25:46;;;;;;;;;;;24.50;37.30;;;;;;5056037;28;19931;-58
2024/01/06 13:28:14;;;;;;;;;;;24.50;37.30;;;;;;5073749;28;20386;-58
2024/01/06 13:30:41;;;;;;;;;;;24.40;37.30;;;;;;5074169;28;19932;-57
2024/01/06 13:33:11;;;;;;;;;;;24.40;37.30;;;;;;5073587;28;19932;-57
2024/01/06 13:35:39;;;;;;;;;;;24.40;37.30;;;;;;5073561;28;20001;-56
2024/01/06 13:38:05;;;;;;;;;;;24.40;37.30;;;;;;5073620;28;20381;-56
2024/01/06 13:40:32;;;;;;;;;;;24.40;37.30;;;;;;5073201;28;20330;-57
2024/01/06 13:42:59;;;;;;;;;;;24.40;37.30;;;;;;5073615;28;20630;-57
2024/01/06 13:45:26;;;;;;;;;;;24.40;37.30;;;;;;5074034;28;19924;-57
2024/01/06 13:47:53;;;;;;;;;;;24.30;37.30;;;;;;5055845;28;20007;-57
2024/01/06 13:50:21;;;;;;;;;;;24.40;37.40;;;;;;5073708;28;19928;-56
2024/01/06 13:52:48;;;;;;;;;;;24.30;37.30;;;;;;5073699;28;19932;-57
2024/01/06 13:55:15;;;;;;;;;;;24.30;37.40;;;;;;5073251;28;20382;-59
2024/01/06 13:57:42;;;;;;;;;;;24.30;37.40;;;;;;5073781;28;19925;-58
2024/01/06 14:00:18;;;;;;;;;;;24.30;37.40;;;;;;5073451;28;19924;-57
2024/01/06 14:02:47;;;;;;;;;;;24.30;37.40;;;;;;5073419;28;20364;-55
2024/01/06 14:05:15;;;;;;;;;;;24.30;37.40;;;;;;5073569;28;20018;-57
2024/01/06 14:07:45;;;;;;;;;;;24.30;37.40;;;;;;5073686;28;19924;-56
2024/01/06 14:10:14;;;;;;;;;;;24.30;37.40;;;;;;5073165;28;20373;-57
2024/01/06 14:12:41;;;;;;;;;;;24.30;37.40;;;;;;5073440;28;19925;-57
2024/01/06 14:15:08;;;;;;;;;;;24.30;37.40;;;;;;5073478;28;19925;-58
2024/01/06 14:17:35;;;;;;;;;;;24.30;37.40;;;;;;5073051;28;19970;-57